map of PRH home
PRH - Airport
Location
City:  Phrae, Phrae, Thailand
ICAO:VTCP
IATA:PRH

Details
Type:Airport (Aerodrome, Airfield)
Use:Public/Civil
Latitude:1807'56"N (18.132169)
Longitude:10009'53"E (100.164664)
Datum:WGS 1984
Elevation:538 ft (164 m)
Variation:0.76W (WMM2015 magnetic declination)
0.01 annual change
Runways:1
Longest:4921 × 98 ft (1500 × 30 m), paved

Time
Time Zone:UTC+7
Local Time:

Weather
METAR:VTCP 210300Z VRB03KT 9999 FEW015 SCT025 BKN100 31/26 Q1015 NOSIG
TAF:VTCP 202300Z 2100/2124 12005KT 9999 SCT030
TEMPO 2108/2115 VRB15G25KT 5000 TSRA FEW025CB BKN030

Related Locations
Nearby:
Farthest:SJA: 12078 mi / 19438 km
San Juan de Marcona [San Juan de Marcona Airport], ICA, PE

Find:

   beyond  
but within

Other Information
Maps:
NOTAMs:
Links:
Sources:

  
  • flag of Thailand
  

Sectional Chart

Flight Planning
at skyvector.com

Satellite Image

Google Maps Satellite view

 

Copyright © 2004-2018 Karl L. Swartz. All rights reserved.
The Great Circle Mapper name and logo are trademarks of the Great Circle Mapper.
All other trademarks mentioned herein belong to their respective owners.
Please see credits for attibutions and further copyright information.

  Follow gcmap on Facebook Follow gcmap on Twitter Follow gcmap on Google+ GCmap on LinkedIn

hCard Microformat

Geo Microformat